Time;durP1;ratioP1;P1;durP2;ratioP2;P2;SDS_P1;SDS_P2;PMS_P1;PMS_P2;Temp;Humidity;BMP_temperature;BMP_pressure;BME280_temperature;BME280_humidity;BME280_pressure;Samples;Min_cycle;Max_cycle;Signal;HPM_P1;HPM_P2
2022/09/26 00:02:02;;;;;;;3.85;3.20;;;;;;;21.88;57.91;99686.53;20633876;28;20046;-75
2022/09/26 00:12:03;;;;;;;3.65;2.92;;;;;;;21.88;58.38;99665.47;20627055;28;20085;-74
2022/09/26 00:22:03;;;;;;;4.45;2.97;;;;;;;21.88;58.09;99660.19;20629333;28;20509;-74
2022/09/26 00:32:04;;;;;;;4.88;2.97;;;;;;;21.85;57.98;99665.72;20624888;28;20038;-74
2022/09/26 00:42:04;;;;;;;4.68;2.95;;;;;;;21.80;57.74;99639.81;20631006;28;20080;-73
2022/09/26 00:52:17;;;;;;;3.40;2.95;;;;;;;21.79;57.79;99630.25;20617123;28;20042;-74
2022/09/26 01:02:17;;;;;;;;;;;;;;;21.80;57.69;99616.09;20638140;28;20050;-74
2022/09/26 01:12:19;;;;;;;4.55;3.20;;;;;;;21.77;57.52;99611.09;20634212;28;19925;-74
2022/09/26 01:22:42;;;;;;;3.30;3.00;;;;;;;21.76;57.76;99604.16;20635881;28;21341;-74
2022/09/26 01:33:07;;;;;;;3.25;2.95;;;;;;;21.73;57.67;99610.56;20636933;28;20061;-74
2022/09/26 01:43:18;;;;;;;4.10;2.70;;;;;;;21.73;57.94;99593.94;20642519;28;21648;-74
2022/09/26 01:53:37;;;;;;;4.40;3.07;;;;;;;21.72;57.73;99587.81;20634817;28;20036;-74
2022/09/26 02:03:44;;;;;;;3.03;2.60;;;;;;;21.72;57.71;99563.28;20632534;28;20089;-73
2022/09/26 02:13:50;;;;;;;3.45;2.60;;;;;;;21.73;57.68;99567.56;20635537;28;20156;-74
2022/09/26 02:23:53;;;;;;;3.35;2.70;;;;;;;21.73;57.79;99543.84;20634299;28;20521;-74
2022/09/26 02:33:55;;;;;;;;;;;;;;;21.74;57.73;99545.53;20628263;28;20042;-74
2022/09/26 02:44:27;;;;;;;2.70;2.50;;;;;;;21.69;57.79;99577.56;20631465;28;19972;-74
2022/09/26 02:54:48;;;;;;;3.20;2.60;;;;;;;21.68;57.88;99552.19;20634103;28;20460;-75
2022/09/26 03:05:01;;;;;;;3.10;2.80;;;;;;;21.67;57.80;99528.63;20637642;28;20046;-74
2022/09/26 03:15:04;;;;;;;2.67;2.47;;;;;;;21.67;57.60;99542.63;20622551;28;20104;-74
2022/09/26 03:25:06;;;;;;;3.10;2.70;;;;;;;21.63;57.68;99525.44;20631534;28;20042;-74
2022/09/26 03:35:08;;;;;;;2.97;2.60;;;;;;;21.68;57.40;99522.34;20630052;28;20997;-74
2022/09/26 03:45:09;;;;;;;3.37;2.70;;;;;;;21.68;57.49;99498.66;20636220;28;20046;-74
2022/09/26 03:55:10;;;;;;;3.03;2.72;;;;;;;21.66;57.50;99482.16;20623824;28;20416;-74
2022/09/26 04:05:10;;;;;;;3.88;2.60;;;;;;;21.69;58.09;99468.69;20629417;28;20049;-74
2022/09/26 04:15:29;;;;;;;6.13;2.92;;;;;;;21.78;59.17;99456.47;20634485;28;20057;-74
2022/09/26 04:25:30;;;;;;;4.55;2.70;;;;;;;21.79;59.69;99445.78;20602910;28;20046;-74
2022/09/26 04:35:30;;;;;;;4.50;3.40;;;;;;;21.81;59.50;99437.72;20615768;28;20092;-74
2022/09/26 04:45:32;;;;;;;20.00;6.30;;;;;;;21.84;59.57;99450.63;20610068;28;20049;-74
2022/09/26 04:55:32;;;;;;;10.57;7.70;;;;;;;21.56;56.22;99446.16;20631512;28;20041;-74
2022/09/26 05:05:33;;;;;;;13.98;6.90;;;;;;;21.68;57.90;99467.88;20634271;28;20101;-75
2022/09/26 05:15:38;;;;;;;8.55;6.35;;;;;;;21.64;56.79;99453.34;20641880;28;20077;-75
2022/09/26 05:35:59;;;;;;;10.80;6.57;;;;;;;21.72;57.86;99442.88;20623957;28;20133;-75
2022/09/26 05:46:00;;;;;;;13.10;7.00;;;;;;;;;;20648265;28;20053;-74
2022/09/26 05:56:01;;;;;;;13.25;5.95;;;;;;;21.74;57.42;99469.94;20616021;28;20045;-72
2022/09/26 06:06:10;;;;;;;15.20;7.15;;;;;;;21.71;57.09;99459.66;20645193;28;20196;-71
2022/09/26 06:16:18;;;;;;;14.95;7.70;;;;;;;21.74;57.29;99416.41;20662015;28;20042;-70
2022/09/26 06:26:21;;;;;;;17.38;8.32;;;;;;;21.77;57.00;99415.28;20655083;28;20073;-70
2022/09/26 06:36:23;;;;;;;15.48;8.50;;;;;;;21.82;56.98;99431.47;20644896;28;20060;-70
2022/09/26 06:46:23;;;;;;;13.45;8.35;;;;;;;21.78;57.13;99438.03;20641918;28;20053;-71
2022/09/26 06:56:23;;;;;;;13.80;8.68;;;;;;;21.80;56.93;99438.69;20650778;28;21172;-70
2022/09/26 07:06:24;;;;;;;11.38;7.72;;;;;;;21.81;56.59;99430.63;20654152;28;20050;-71
2022/09/26 07:16:25;;;;;;;15.35;7.68;;;;;;;21.83;56.76;99433.16;20662083;28;20039;-71
2022/09/26 07:26:26;;;;;;;13.77;6.95;;;;;;;21.83;56.63;99433.97;20658434;28;20100;-71
2022/09/26 07:36:26;;;;;;;11.00;7.18;;;;;;;21.85;56.11;99434.66;20626811;28;20046;-71
2022/09/26 07:56:46;;;;;;;10.52;7.07;;;;;;;21.89;55.60;99474.72;20645821;28;20165;-70
2022/09/26 08:06:47;;;;;;;10.93;7.57;;;;;;;21.86;55.87;99464.47;20655825;28;20744;-70
2022/09/26 08:16:54;;;;;;;9.40;7.10;;;;;;;21.88;55.92;99465.97;20679385;28;20516;-71
2022/09/26 08:26:54;;;;;;;11.23;7.85;;;;;;;21.89;56.02;99464.19;20672966;28;20042;-71
2022/09/26 08:36:54;;;;;;;11.48;7.18;;;;;;;21.89;55.97;99465.00;20671898;28;20172;-72
2022/09/26 08:47:05;;;;;;;10.32;7.70;;;;;;;21.91;56.12;99463.06;20663362;28;20038;-72
2022/09/26 08:57:16;;;;;;;8.15;6.65;;;;;;;21.93;55.94;99457.63;20660193;28;22160;-71
2022/09/26 09:07:21;;;;;;;11.30;8.30;;;;;;;21.97;56.05;99468.72;20669666;28;20034;-71
2022/09/26 09:17:37;;;;;;;10.73;8.13;;;;;;;21.98;56.15;99468.56;20658209;28;20041;-71
2022/09/26 09:28:03;;;;;;;12.27;8.70;;;;;;;21.99;56.41;99464.94;20617624;28;20486;-71
2022/09/26 09:38:06;;;;;;;12.48;8.90;;;;;;;22.03;56.10;99463.69;20618420;28;21813;-72
2022/09/26 09:48:11;;;;;;;10.90;8.50;;;;;;;22.10;56.06;99444.66;20616079;28;20042;-72
2022/09/26 09:58:36;;;;;;;9.60;6.90;;;;;;;22.04;54.37;99443.44;20619893;28;20283;-73
2022/09/26 10:08:41;;;;;;;7.60;6.00;;;;;;;22.05;54.59;99431.91;20623876;28;20049;-73
2022/09/26 10:19:05;;;;;;;6.20;5.07;;;;;;;22.05;53.81;99432.72;20605221;28;24970;-74
2022/09/26 10:29:33;;;;;;;7.28;4.80;;;;;;;22.04;53.49;99441.63;20623568;28;20049;-74
2022/09/26 10:50:05;;;;;;;3.95;3.55;;;;;;;22.04;52.04;99432.88;20624539;28;20477;-74
2022/09/26 11:00:06;;;;;;;3.50;3.20;;;;;;;21.94;51.62;99446.13;20614256;28;20077;-73
2022/09/26 11:10:13;;;;;;;4.53;3.08;;;;;;;21.96;52.12;99445.97;20671570;28;20496;-75
2022/09/26 11:20:40;;;;;;;4.55;3.33;;;;;;;21.99;52.86;99464.94;20681313;28;20050;-73
2022/09/26 11:30:46;;;;;;;6.90;4.18;;;;;;;22.03;54.74;99447.88;20686951;28;20248;-74
2022/09/26 11:41:12;;;;;;;6.03;4.03;;;;;;;22.11;55.06;99433.97;20677840;28;20431;-74
2022/09/26 11:51:52;;;;;;;8.40;4.30;;;;;;;22.14;55.17;99433.69;20681425;28;20046;-74
2022/09/26 12:02:30;;;;;;;6.18;4.25;;;;;;;22.18;55.31;99442.09;20680458;28;20050;-73
2022/09/26 12:13:04;;;;;;;5.20;4.15;;;;;;;22.23;55.13;99431.94;20683063;28;20072;-74
2022/09/26 12:24:04;;;;;;;5.20;3.83;;;;;;;22.36;55.14;99408.69;20647097;28;20061;-74
2022/09/26 12:34:44;;;;;;;6.55;3.80;;;;;;;22.44;55.03;99388.66;20639437;28;20050;-75
2022/09/26 12:45:13;;;;;;;6.20;3.50;;;;;;;22.51;55.16;99381.81;20663814;28;20046;-75
2022/09/26 12:55:46;;;;;;;5.00;3.78;;;;;;;22.60;55.03;99375.59;20665868;28;20124;-76
2022/09/26 13:06:24;;;;;;;6.47;3.92;;;;;;;22.66;55.12;99355.69;20645931;28;20153;-75
2022/09/26 13:16:54;;;;;;;4.93;3.35;;;;;;;22.68;54.70;99370.38;20649125;28;20050;-75
2022/09/26 13:27:12;;;;;;;3.92;3.47;;;;;;;22.65;54.70;99370.69;20660580;28;20133;-76
2022/09/26 13:37:27;;;;;;;5.35;3.13;;;;;;;22.65;54.88;99372.50;20661038;28;20069;-76
2022/09/26 13:47:45;;;;;;;8.10;3.50;;;;;;;22.63;55.05;99377.09;20621246;28;20038;-77
2022/09/26 13:57:48;;;;;;;7.65;4.13;;;;;;;22.62;55.04;99381.56;20618264;28;20066;-76
2022/09/26 14:18:23;;;;;;;6.30;3.73;;;;;;;22.65;55.36;99361.94;20625792;28;20042;-77
2022/09/26 14:28:32;;;;;;;7.18;3.30;;;;;;;22.68;54.98;99349.28;20619723;28;20501;-76
2022/09/26 14:38:39;;;;;;;5.28;3.30;;;;;;;22.67;54.94;99321.22;20626214;28;20045;-78
2022/09/26 14:48:41;;;;;;;3.92;2.78;;;;;;;22.68;54.97;99309.69;20619223;28;20042;-76
2022/09/26 14:58:41;;;;;;;5.57;3.15;;;;;;;22.73;54.94;99317.16;20605957;28;20062;-77
2022/09/26 15:08:42;;;;;;;5.32;2.80;;;;;;;22.72;55.22;99320.78;20609031;28;20053;-76
2022/09/26 15:18:47;;;;;;;6.05;2.80;;;;;;;22.62;54.29;99307.69;20634404;28;20049;-78
2022/09/26 15:28:51;;;;;;;4.95;2.72;;;;;;;22.59;54.73;99296.59;20638307;28;20287;-76
2022/09/26 15:38:56;;;;;;;4.43;2.60;;;;;;;22.64;54.50;99289.03;20625357;28;20070;-75
2022/09/26 15:48:57;;;;;;;13.43;3.45;;;;;;;22.63;54.26;99295.31;20614062;28;20045;-75
2022/09/26 15:59:06;;;;;;;7.73;2.83;;;;;;;22.59;54.58;99292.16;20600739;28;20038;-75
2022/09/26 16:09:18;;;;;;;5.63;3.47;;;;;;;22.51;54.95;99292.13;20590337;28;20418;-76
2022/09/26 16:19:34;;;;;;;5.47;4.53;;;;;;;22.39;55.15;99294.16;20602569;28;21368;-76
2022/09/26 16:29:34;;;;;;;9.98;7.35;;;;;;;22.32;54.76;99293.09;20609218;28;20078;-76
2022/09/26 16:39:35;;;;;;;11.65;8.65;;;;;;;22.30;54.91;99295.88;20610744;28;20062;-74
2022/09/26 16:49:47;;;;;;;13.50;8.77;;;;;;;22.27;54.99;99285.63;20621729;28;20034;-76
2022/09/26 16:59:51;;;;;;;12.27;9.20;;;;;;;22.24;54.96;99280.66;20625096;28;20060;-76
2022/09/26 17:09:51;;;;;;;13.85;9.90;;;;;;;22.22;55.06;99288.72;20619823;28;20046;-73
2022/09/26 17:19:56;;;;;;;13.73;10.02;;;;;;;22.18;55.09;99295.28;20603083;28;20253;-73
2022/09/26 17:30:01;;;;;;;20.00;10.82;;;;;;;22.23;56.73;99298.28;20617475;28;20138;-73
2022/09/26 17:40:05;;;;;;;19.65;12.73;;;;;;;22.28;57.52;99303.09;20602347;28;20095;-73
2022/09/26 17:50:10;;;;;;;17.92;13.10;;;;;;;22.35;59.63;99290.97;20601700;28;20030;-76
2022/09/26 18:00:16;;;;;;;18.77;12.27;;;;;;;22.37;60.22;99285.53;20594624;28;20050;-73
2022/09/26 18:10:20;;;;;;;23.55;11.02;;;;;;;22.37;60.09;99285.53;20610459;28;20049;-78
2022/09/26 18:20:35;;;;;;;15.63;10.65;;;;;;;22.34;60.27;99288.50;20595355;28;20060;-75
2022/09/26 18:30:38;;;;;;;16.70;10.35;;;;;;;22.34;60.31;99289.31;20621679;28;20041;-74
2022/09/26 18:40:43;;;;;;;14.82;10.40;;;;;;;22.33;60.60;99279.72;20614363;28;20049;-75
2022/09/26 18:50:43;;;;;;;22.33;12.52;;;;;;;22.40;61.57;99290.53;20625743;28;20030;-75
2022/09/26 19:00:47;;;;;;;26.45;16.58;;;;;;;22.48;62.94;99289.75;20643438;28;20108;-75
2022/09/26 19:10:47;;;;;;;23.38;16.52;;;;;;;22.48;63.60;99292.41;20624177;28;20045;-74
2022/09/26 19:20:49;;;;;;;23.60;13.27;;;;;;;22.45;62.35;99300.63;20647167;28;20042;-75
2022/09/26 19:30:50;;;;;;;16.58;11.35;;;;;;;22.44;61.90;99315.63;20659249;28;20042;-74
2022/09/26 19:40:52;;;;;;;13.25;9.73;;;;;;;22.40;61.53;99319.56;20633612;28;20041;-74
2022/09/26 19:50:52;;;;;;;14.65;9.27;;;;;;;22.37;61.23;99301.34;20639573;28;20066;-74
2022/09/26 20:00:55;;;;;;;12.27;8.85;;;;;;;22.33;60.85;99285.00;20660999;28;20045;-74
2022/09/26 20:10:58;;;;;;;10.80;8.02;;;;;;;22.33;60.54;99300.84;20674526;28;20050;-74
2022/09/26 20:20:58;;;;;;;10.25;7.90;;;;;;;22.30;60.55;99287.13;20656021;28;20065;-75
2022/09/26 20:30:58;;;;;;;10.90;7.15;;;;;;;22.29;60.30;99296.00;20650921;28;20042;-75
2022/09/26 20:41:05;;;;;;;10.57;7.53;;;;;;;22.29;60.15;99298.66;20658026;28;20941;-75
2022/09/26 20:51:14;;;;;;;8.45;7.07;;;;;;;22.30;60.24;99289.75;20651460;28;20169;-75
2022/09/26 21:01:16;;;;;;;8.63;7.00;;;;;;;22.30;60.28;99295.03;20658459;28;20033;-76
2022/09/26 21:11:19;;;;;;;9.27;6.78;;;;;;;22.27;60.02;99282.16;20638944;28;20173;-73
2022/09/26 21:21:27;;;;;;;8.38;6.32;;;;;;;22.21;60.16;99276.50;20636024;28;20807;-74
2022/09/26 21:31:30;;;;;;;9.68;6.90;;;;;;;22.19;60.03;99267.09;20645461;28;20066;-74
2022/09/26 21:41:31;;;;;;;10.57;6.95;;;;;;;22.20;59.75;99250.28;20627914;28;20572;-74
2022/09/26 21:51:35;;;;;;;10.63;6.53;;;;;;;22.20;59.67;99253.78;20638433;28;20554;-75
2022/09/26 22:01:35;;;;;;;8.02;5.80;;;;;;;22.17;59.23;99253.25;20633077;28;20412;-74
2022/09/26 22:11:36;;;;;;;8.18;6.13;;;;;;;22.17;59.18;99250.63;20631347;28;20100;-75
2022/09/26 22:21:36;;;;;;;7.18;6.10;;;;;;;22.16;59.06;99235.78;20626804;28;20376;-75
2022/09/26 22:31:37;;;;;;;6.85;6.10;;;;;;;22.15;59.01;99223.56;20624571;28;20042;-74
2022/09/26 22:41:43;;;;;;;8.48;6.28;;;;;;;22.14;59.29;99208.72;20627412;28;20057;-74
2022/09/26 22:51:43;;;;;;;8.40;5.88;;;;;;;22.13;58.72;99178.06;20626880;28;20400;-75
2022/09/26 23:01:44;;;;;;;9.40;5.95;;;;;;;22.11;58.94;99174.78;20627389;28;20043;-75
2022/09/26 23:11:45;;;;;;;6.32;5.50;;;;;;;22.10;58.99;99165.22;20622104;28;20131;-74
2022/09/26 23:21:46;;;;;;;6.63;5.60;;;;;;;22.09;58.70;99151.19;20623002;28;20046;-75
2022/09/26 23:31:52;;;;;;;6.60;5.57;;;;;;;22.07;58.50;99143.44;20618471;28;20054;-74
2022/09/26 23:41:53;;;;;;;5.97;5.38;;;;;;;22.07;58.66;99125.00;20621353;28;20206;-74
2022/09/26 23:51:54;;;;;;;6.07;4.72;;;;;;;22.05;58.47;99124.31;20623315;28;20046;-74
